createdAt,value
2022-08-28T00:01:42.756Z,5.10
2022-08-28T00:04:10.518Z,4.85
2022-08-28T00:06:38.596Z,5.10
2022-08-28T00:09:17.301Z,5.28
2022-08-28T00:11:45.009Z,4.80
2022-08-28T00:14:14.107Z,4.90
2022-08-28T00:16:42.237Z,5.10
2022-08-28T00:19:11.358Z,4.75
2022-08-28T00:21:39.097Z,4.53
2022-08-28T00:24:09.119Z,4.53
2022-08-28T00:26:55.067Z,5.18
2022-08-28T00:29:24.320Z,5.00
2022-08-28T00:31:51.965Z,5.55
2022-08-28T00:34:19.436Z,5.10
2022-08-28T00:36:56.057Z,5.05
2022-08-28T00:39:24.302Z,5.55
2022-08-28T00:41:57.754Z,5.70
2022-08-28T00:44:28.347Z,5.15
2022-08-28T00:46:59.957Z,5.30
2022-08-28T00:49:36.047Z,5.13
2022-08-28T00:52:12.453Z,4.50
2022-08-28T00:54:58.694Z,4.82
2022-08-28T00:57:48.741Z,4.75
2022-08-28T01:00:30.758Z,4.82
2022-08-28T01:02:59.251Z,4.82
2022-08-28T01:05:29.330Z,5.28
2022-08-28T01:08:00.001Z,4.70
2022-08-28T01:10:31.564Z,4.95
2022-08-28T01:12:59.928Z,5.07
2022-08-28T01:15:33.507Z,4.47
2022-08-28T01:18:08.498Z,4.35
2022-08-28T01:20:44.514Z,4.45
2022-08-28T01:23:46.056Z,5.20
2022-08-28T01:26:15.941Z,4.55
2022-08-28T01:28:44.003Z,4.95
2022-08-28T01:31:14.159Z,4.93
2022-08-28T01:33:44.135Z,5.25
2022-08-28T01:36:13.819Z,5.47
2022-08-28T01:38:45.263Z,4.90
2022-08-28T01:41:14.158Z,5.13
2022-08-28T01:43:43.166Z,5.25
2022-08-28T01:46:12.690Z,5.25
2022-08-28T01:48:43.915Z,5.13
2022-08-28T01:51:12.729Z,4.88
2022-08-28T01:53:45.144Z,5.72
2022-08-28T01:56:17.956Z,4.88
2022-08-28T01:58:45.913Z,5.20
2022-08-28T02:01:18.141Z,4.85
2022-08-28T02:03:46.376Z,4.95
2022-08-28T02:06:15.698Z,4.55
2022-08-28T02:08:43.021Z,4.63
2022-08-28T02:11:11.767Z,5.32
2022-08-28T02:13:41.180Z,5.55
2022-08-28T02:16:10.817Z,5.30
2022-08-28T02:18:38.985Z,5.35
2022-08-28T02:21:08.059Z,5.43
2022-08-28T02:23:38.771Z,5.40
2022-08-28T02:26:07.374Z,5.85
2022-08-28T02:31:03.425Z,5.07
2022-08-28T02:36:17.699Z,5.22
2022-08-28T02:38:46.315Z,5.07
2022-08-28T02:41:14.665Z,6.00
2022-08-28T02:43:41.961Z,5.72
2022-08-28T02:46:10.453Z,5.15
2022-08-28T02:48:40.507Z,5.55
2022-08-28T02:51:13.385Z,4.90
2022-08-28T02:53:42.484Z,5.25
2022-08-28T02:56:10.792Z,6.10
2022-08-28T02:58:40.346Z,5.50
2022-08-28T03:01:12.495Z,5.50
2022-08-28T03:03:41.489Z,5.43
2022-08-28T03:06:12.803Z,5.80
2022-08-28T03:08:42.371Z,5.30
2022-08-28T03:11:10.295Z,5.28
2022-08-28T03:13:37.998Z,5.10
2022-08-28T03:16:06.671Z,5.47
2022-08-28T03:18:35.216Z,5.18
2022-08-28T03:21:03.228Z,5.05
2022-08-28T03:23:33.000Z,5.22
2022-08-28T03:26:14.148Z,6.03
2022-08-28T03:28:48.500Z,5.05
2022-08-28T03:31:22.101Z,4.85
2022-08-28T03:33:50.379Z,5.40
2022-08-28T03:36:23.340Z,5.55
2022-08-28T03:38:54.511Z,5.72
2022-08-28T03:41:25.514Z,5.80
2022-08-28T03:43:53.159Z,5.65
2022-08-28T03:46:24.151Z,5.50
2022-08-28T03:48:53.972Z,5.28
2022-08-28T03:51:29.764Z,5.65
2022-08-28T03:53:59.555Z,5.45
2022-08-28T03:56:30.379Z,4.80
2022-08-28T03:59:01.960Z,5.13
2022-08-28T04:01:29.288Z,5.35
2022-08-28T04:03:58.237Z,5.30
2022-08-28T04:06:25.736Z,5.10
2022-08-28T04:08:53.237Z,5.35
2022-08-28T04:11:20.947Z,6.05
2022-08-28T04:13:49.962Z,6.15
2022-08-28T04:16:19.904Z,6.10
2022-08-28T04:18:50.274Z,5.05
2022-08-28T04:21:24.190Z,5.43
2022-08-28T04:23:52.400Z,5.95
2022-08-28T04:26:27.367Z,5.73
2022-08-28T04:28:56.210Z,6.57
2022-08-28T04:31:31.972Z,6.50
2022-08-28T04:34:06.381Z,6.13
2022-08-28T04:36:36.451Z,6.32
2022-08-28T04:39:08.750Z,6.60
2022-08-28T04:41:40.337Z,6.63
2022-08-28T04:44:08.511Z,6.88
2022-08-28T04:46:36.979Z,6.53
2022-08-28T04:49:04.645Z,6.80
2022-08-28T04:51:33.152Z,6.00
2022-08-28T04:54:03.579Z,6.03
2022-08-28T04:56:31.545Z,5.80
2022-08-28T04:59:00.889Z,6.28
2022-08-28T05:01:28.403Z,5.35
2022-08-28T05:03:59.876Z,5.75
2022-08-28T05:06:30.411Z,6.70
2022-08-28T05:08:59.409Z,5.40
2022-08-28T05:11:33.394Z,5.93
2022-08-28T05:14:15.837Z,6.30
2022-08-28T05:16:50.093Z,6.68
2022-08-28T05:19:19.953Z,6.13
2022-08-28T05:21:48.340Z,6.10
2022-08-28T05:24:16.545Z,6.30
2022-08-28T05:26:44.043Z,6.40
2022-08-28T05:29:16.931Z,6.88
2022-08-28T05:31:46.380Z,6.60
2022-08-28T05:34:15.639Z,6.45
2022-08-28T05:36:43.188Z,6.10
2022-08-28T05:39:12.460Z,5.82
2022-08-28T05:44:14.586Z,6.32
2022-08-28T05:46:46.896Z,6.53
2022-08-28T05:49:19.633Z,6.45
2022-08-28T05:51:47.229Z,6.53
2022-08-28T05:54:15.948Z,6.10
2022-08-28T05:56:46.074Z,5.70
2022-08-28T05:59:14.974Z,7.07
2022-08-28T06:01:46.316Z,6.72
2022-08-28T06:04:26.889Z,6.50
2022-08-28T06:06:55.159Z,6.45
2022-08-28T06:09:30.271Z,6.80
2022-08-28T06:12:01.872Z,6.68
2022-08-28T06:14:50.493Z,6.90
2022-08-28T06:17:23.572Z,6.55
2022-08-28T06:19:51.207Z,7.03
2022-08-28T06:22:19.891Z,6.43
2022-08-28T06:24:47.129Z,6.63
2022-08-28T06:27:14.589Z,5.80
2022-08-28T06:29:41.992Z,5.93
2022-08-28T06:32:10.069Z,6.00
2022-08-28T06:34:37.574Z,5.70
2022-08-28T06:37:05.208Z,5.57
2022-08-28T06:39:32.297Z,5.30
2022-08-28T06:42:00.676Z,5.65
2022-08-28T06:44:28.964Z,6.40
2022-08-28T06:46:56.393Z,5.88
2022-08-28T06:49:24.284Z,5.68
2022-08-28T06:51:53.152Z,6.90
2022-08-28T06:54:23.201Z,6.93
2022-08-28T06:56:52.926Z,6.57
2022-08-28T07:01:48.349Z,6.05
2022-08-28T07:04:16.131Z,6.20
2022-08-28T07:06:53.786Z,6.65
2022-08-28T07:09:24.454Z,5.50
2022-08-28T07:11:52.577Z,5.50
2022-08-28T07:14:19.913Z,6.13
2022-08-28T07:16:47.626Z,6.10
2022-08-28T07:19:15.789Z,6.28
2022-08-28T07:21:45.566Z,5.57
2022-08-28T07:24:16.651Z,5.95
2022-08-28T07:26:46.066Z,6.03
2022-08-28T07:29:14.702Z,5.35
2022-08-28T07:31:53.016Z,6.13
2022-08-28T07:34:27.046Z,5.97
2022-08-28T07:36:56.513Z,6.47
2022-08-28T07:39:24.487Z,5.60
2022-08-28T07:41:51.826Z,6.20
2022-08-28T07:44:38.138Z,5.40
2022-08-28T07:47:08.894Z,5.93
2022-08-28T07:49:36.624Z,5.78
2022-08-28T07:52:06.480Z,5.68
2022-08-28T07:54:36.318Z,5.82
2022-08-28T07:57:12.039Z,5.50
2022-08-28T07:59:42.444Z,6.15
2022-08-28T08:02:10.855Z,5.75
2022-08-28T08:04:38.365Z,5.40
2022-08-28T08:07:06.483Z,5.63
2022-08-28T08:09:42.584Z,5.22
2022-08-28T08:12:13.289Z,5.00
2022-08-28T08:14:43.169Z,5.30
2022-08-28T08:17:12.302Z,5.53
2022-08-28T08:19:40.120Z,5.32
2022-08-28T08:22:07.897Z,5.50
2022-08-28T08:24:35.453Z,5.05
2022-08-28T08:27:03.452Z,5.22
2022-08-28T08:29:38.825Z,5.25
2022-08-28T08:32:12.486Z,5.25
2022-08-28T08:34:43.869Z,5.47
2022-08-28T08:39:58.427Z,4.80
2022-08-28T08:42:31.266Z,5.20
2022-08-28T08:45:04.280Z,5.47
2022-08-28T08:47:53.637Z,5.13
2022-08-28T08:50:35.408Z,5.55
2022-08-28T08:53:28.522Z,6.10
2022-08-28T08:56:00.297Z,5.30
2022-08-28T08:58:36.895Z,5.95
2022-08-28T09:01:29.361Z,5.68
2022-08-28T09:04:32.645Z,5.32
2022-08-28T09:07:05.122Z,5.35
2022-08-28T09:09:42.748Z,5.88
2022-08-28T09:12:24.388Z,5.60
2022-08-28T09:15:08.903Z,5.13
2022-08-28T09:17:49.228Z,5.35
2022-08-28T09:20:30.237Z,5.00
2022-08-28T09:23:01.983Z,4.97
2022-08-28T09:25:44.827Z,5.00
2022-08-28T09:28:19.047Z,5.63
2022-08-28T09:31:22.358Z,4.38
2022-08-28T09:33:55.214Z,4.70
2022-08-28T09:36:39.592Z,5.03
2022-08-28T09:39:36.088Z,4.72
2022-08-28T09:42:42.228Z,4.45
2022-08-28T09:45:23.428Z,4.30
2022-08-28T09:48:00.138Z,3.97
2022-08-28T09:50:48.645Z,4.00
2022-08-28T09:53:24.777Z,4.00
2022-08-28T09:56:14.923Z,3.97
2022-08-28T09:59:02.480Z,4.10
2022-08-28T10:02:39.031Z,4.30
2022-08-28T10:06:14.066Z,3.55
2022-08-28T10:09:05.447Z,4.90
2022-08-28T10:15:34.692Z,4.45
2022-08-28T10:18:22.153Z,4.60
2022-08-28T10:21:23.745Z,4.78
2022-08-28T10:24:26.056Z,4.63
2022-08-28T10:27:34.517Z,5.25
2022-08-28T10:30:24.016Z,4.63
2022-08-28T10:33:24.624Z,5.43
2022-08-28T10:36:36.356Z,4.72
2022-08-28T10:39:54.702Z,4.50
2022-08-28T10:42:36.335Z,5.15
2022-08-28T10:45:26.534Z,4.55
2022-08-28T10:48:01.782Z,4.75
2022-08-28T10:50:43.254Z,4.57
2022-08-28T10:53:20.088Z,5.43
2022-08-28T10:56:07.369Z,4.80
2022-08-28T10:58:59.811Z,4.38
2022-08-28T11:01:36.111Z,5.43
2022-08-28T11:04:24.925Z,4.72
2022-08-28T11:06:57.175Z,5.47
2022-08-28T11:09:48.472Z,5.38
2022-08-28T11:12:19.983Z,5.03
2022-08-28T11:14:56.241Z,4.93
2022-08-28T11:17:50.101Z,5.65
2022-08-28T11:21:07.849Z,5.40
2022-08-28T11:24:06.624Z,4.50
2022-08-28T11:27:26.233Z,4.68
2022-08-28T11:30:11.664Z,4.53
2022-08-28T11:33:01.213Z,4.82
2022-08-28T11:35:49.367Z,4.95
2022-08-28T11:38:42.642Z,4.88
2022-08-28T11:41:39.076Z,4.75
2022-08-28T11:44:13.444Z,4.55
2022-08-28T11:46:49.755Z,4.85
2022-08-28T11:49:27.897Z,4.50
2022-08-28T11:52:22.919Z,4.30
2022-08-28T11:55:14.166Z,4.05
2022-08-28T12:01:01.572Z,4.57
2022-08-28T12:03:53.993Z,4.50
2022-08-28T12:06:50.708Z,4.47
2022-08-28T12:09:42.933Z,4.13
2022-08-28T12:12:47.657Z,4.45
2022-08-28T12:15:45.223Z,4.35
2022-08-28T12:18:24.857Z,4.25
2022-08-28T12:21:07.194Z,4.40
2022-08-28T12:24:26.571Z,4.30
2022-08-28T12:27:25.204Z,4.18
2022-08-28T12:30:19.434Z,3.90
2022-08-28T12:33:32.533Z,3.97
2022-08-28T12:39:24.578Z,3.65
2022-08-28T12:42:15.490Z,3.92
2022-08-28T12:44:55.479Z,3.88
2022-08-28T12:47:40.584Z,4.03
2022-08-28T12:50:48.352Z,3.40
2022-08-28T12:53:22.446Z,3.42
2022-08-28T12:55:53.372Z,3.65
2022-08-28T12:58:37.624Z,3.53
2022-08-28T13:01:30.797Z,3.80
2022-08-28T13:04:32.090Z,3.88
2022-08-28T13:07:12.470Z,3.05
2022-08-28T13:09:49.558Z,3.40
2022-08-28T13:12:55.203Z,3.15
2022-08-28T13:16:02.289Z,3.17
2022-08-28T13:18:38.964Z,3.70
2022-08-28T13:21:34.399Z,3.85
2022-08-28T13:24:23.282Z,3.10
2022-08-28T13:27:14.168Z,2.85
2022-08-28T13:29:52.481Z,2.97
2022-08-28T13:32:33.466Z,6.13
2022-08-28T13:35:33.244Z,4.97
2022-08-28T13:38:04.066Z,3.45
2022-08-28T13:40:59.644Z,3.38
2022-08-28T13:43:45.069Z,3.30
2022-08-28T13:46:12.737Z,3.50
2022-08-28T13:48:40.154Z,3.67
2022-08-28T13:51:24.637Z,4.38
2022-08-28T13:54:41.614Z,3.58
2022-08-28T13:57:17.261Z,4.90
2022-08-28T13:59:55.774Z,4.03
2022-08-28T14:02:42.502Z,3.50
2022-08-28T14:05:31.838Z,3.10
2022-08-28T14:08:15.701Z,3.40
2022-08-28T14:10:48.461Z,5.50
2022-08-28T14:13:21.078Z,5.45
2022-08-28T14:16:04.197Z,4.10
2022-08-28T14:18:35.814Z,3.72
2022-08-28T14:21:09.561Z,4.00
2022-08-28T14:23:47.439Z,3.30
2022-08-28T14:26:21.545Z,3.30
2022-08-28T14:28:51.073Z,3.20
2022-08-28T14:31:24.679Z,3.45
2022-08-28T14:34:09.916Z,3.85
2022-08-28T14:36:45.870Z,3.80
2022-08-28T14:39:30.374Z,3.97
2022-08-28T14:41:59.956Z,4.75
2022-08-28T14:44:37.382Z,4.60
2022-08-28T14:47:12.441Z,4.35
2022-08-28T14:49:40.233Z,4.60
2022-08-28T14:52:22.111Z,4.85
2022-08-28T14:54:58.577Z,4.20
2022-08-28T14:58:19.369Z,4.30
2022-08-28T15:00:26.188Z,4.55
2022-08-28T15:02:57.698Z,4.18
2022-08-28T15:05:28.063Z,4.45
2022-08-28T15:07:57.053Z,4.05
2022-08-28T15:13:31.634Z,3.72
2022-08-28T15:16:15.438Z,4.45
2022-08-28T15:18:50.348Z,4.30
2022-08-28T15:21:25.900Z,4.28
2022-08-28T15:23:58.193Z,4.38
2022-08-28T15:26:45.207Z,4.55
2022-08-28T15:30:18.708Z,4.47
2022-08-28T15:32:58.679Z,4.47
2022-08-28T15:35:27.269Z,4.53
2022-08-28T15:37:55.221Z,4.35
2022-08-28T15:40:44.485Z,4.20
2022-08-28T15:43:16.673Z,4.47
2022-08-28T15:46:01.954Z,4.38
2022-08-28T15:48:38.591Z,4.28
2022-08-28T15:51:12.483Z,4.97
2022-08-28T15:53:47.742Z,4.90
2022-08-28T15:56:26.965Z,4.32
2022-08-28T15:58:54.465Z,4.43
2022-08-28T16:01:25.416Z,3.83
2022-08-28T16:03:54.965Z,4.60
2022-08-28T16:06:24.742Z,4.57
2022-08-28T16:08:52.099Z,4.40
2022-08-28T16:11:22.617Z,3.88
2022-08-28T16:13:51.507Z,4.18
2022-08-28T16:16:19.867Z,3.70
2022-08-28T16:18:47.601Z,4.30
2022-08-28T16:21:15.532Z,4.15
2022-08-28T16:23:42.967Z,4.60
2022-08-28T16:26:29.188Z,4.38
2022-08-28T16:29:15.062Z,4.00
2022-08-28T16:31:58.031Z,4.15
2022-08-28T16:34:38.183Z,4.20
2022-08-28T16:37:15.818Z,4.20
2022-08-28T16:40:21.755Z,3.80
2022-08-28T16:42:51.866Z,3.65
2022-08-28T16:45:29.765Z,4.30
2022-08-28T16:48:40.084Z,3.53
2022-08-28T16:54:01.262Z,4.35
2022-08-28T16:56:46.254Z,4.07
2022-08-28T17:02:34.584Z,4.47
2022-08-28T17:05:11.087Z,3.95
2022-08-28T17:07:40.193Z,4.40
2022-08-28T17:10:13.949Z,4.35
2022-08-28T17:13:52.606Z,4.15
2022-08-28T17:15:48.485Z,4.50
2022-08-28T17:18:48.869Z,4.38
2022-08-28T17:21:44.151Z,4.78
2022-08-28T17:24:15.148Z,4.45
2022-08-28T17:26:44.999Z,4.65
2022-08-28T17:32:02.332Z,4.38
2022-08-28T17:34:33.401Z,4.38
2022-08-28T17:37:04.553Z,4.47
2022-08-28T17:39:32.151Z,4.38
2022-08-28T17:42:00.005Z,4.30
2022-08-28T17:44:35.401Z,4.50
2022-08-28T17:47:03.321Z,5.10
2022-08-28T17:49:32.900Z,4.38
2022-08-28T17:52:04.519Z,4.40
2022-08-28T17:54:36.509Z,3.70
2022-08-28T17:57:04.758Z,4.05
2022-08-28T17:59:33.143Z,4.10
2022-08-28T18:02:01.391Z,4.70
2022-08-28T18:04:29.733Z,5.20
2022-08-28T18:06:57.986Z,4.90
2022-08-28T18:09:25.730Z,4.82
2022-08-28T18:11:54.174Z,6.88
2022-08-28T18:14:21.954Z,9.38
2022-08-28T18:16:52.051Z,9.75
2022-08-28T18:19:20.672Z,11.55
2022-08-28T18:21:48.640Z,19.63
2022-08-28T18:24:16.978Z,15.07
2022-08-28T18:26:47.432Z,10.03
2022-08-28T18:29:15.366Z,6.35
2022-08-28T18:31:43.772Z,5.43
2022-08-28T18:34:11.436Z,5.07
2022-08-28T18:36:41.591Z,5.47
2022-08-28T18:39:10.026Z,5.43
2022-08-28T18:41:43.393Z,4.72
2022-08-28T18:44:15.905Z,5.00
2022-08-28T18:46:48.215Z,4.10
2022-08-28T18:49:16.000Z,4.15
2022-08-28T18:51:50.419Z,4.50
2022-08-28T18:54:23.632Z,4.22
2022-08-28T18:56:51.117Z,4.07
2022-08-28T18:59:19.158Z,5.20
2022-08-28T19:01:46.859Z,3.90
2022-08-28T19:04:15.979Z,4.40
2022-08-28T19:06:44.332Z,4.47
2022-08-28T19:09:19.276Z,4.07
2022-08-28T19:11:48.833Z,4.00
2022-08-28T19:14:16.725Z,4.40
2022-08-28T19:16:59.013Z,4.13
2022-08-28T19:19:52.189Z,4.38
2022-08-28T19:22:19.931Z,4.95
2022-08-28T19:24:48.015Z,4.47
2022-08-28T19:27:15.832Z,4.97
2022-08-28T19:29:43.295Z,4.95
2022-08-28T19:32:10.998Z,5.28
2022-08-28T19:34:41.511Z,5.05
2022-08-28T19:37:09.098Z,5.10
2022-08-28T19:39:36.689Z,5.05
2022-08-28T19:42:09.403Z,4.80
2022-08-28T19:44:38.938Z,5.40
2022-08-28T19:47:06.897Z,5.60
2022-08-28T19:49:38.670Z,4.37
2022-08-28T19:52:08.303Z,5.13
2022-08-28T19:55:01.292Z,4.63
2022-08-28T19:57:28.715Z,4.80
2022-08-28T19:59:56.314Z,5.35
2022-08-28T20:02:24.409Z,5.70
2022-08-28T20:04:54.411Z,5.50
2022-08-28T20:07:22.867Z,5.15
2022-08-28T20:09:52.649Z,4.93
2022-08-28T20:12:20.626Z,5.07
2022-08-28T20:14:50.710Z,5.32
2022-08-28T20:17:21.173Z,5.07
2022-08-28T20:19:48.566Z,5.15
2022-08-28T20:22:16.101Z,5.03
2022-08-28T20:24:44.109Z,5.30
2022-08-28T20:27:12.160Z,4.70
2022-08-28T20:29:40.786Z,4.50
2022-08-28T20:32:11.028Z,4.43
2022-08-28T20:34:43.848Z,4.03
2022-08-28T20:37:19.774Z,4.25
2022-08-28T20:39:52.541Z,4.50
2022-08-28T20:42:31.782Z,4.40
2022-08-28T20:45:03.557Z,4.88
2022-08-28T20:47:52.475Z,4.72
2022-08-28T20:50:22.601Z,4.35
2022-08-28T20:52:51.560Z,4.38
2022-08-28T20:55:18.873Z,4.13
2022-08-28T20:57:46.282Z,4.50
2022-08-28T21:00:14.191Z,4.95
2022-08-28T21:02:41.806Z,5.18
2022-08-28T21:05:10.054Z,4.65
2022-08-28T21:07:37.933Z,4.38
2022-08-28T21:10:09.579Z,4.18
2022-08-28T21:12:47.526Z,4.40
2022-08-28T21:15:16.242Z,5.28
2022-08-28T21:17:43.850Z,4.50
2022-08-28T21:20:15.403Z,4.22
2022-08-28T21:22:43.648Z,5.15
2022-08-28T21:25:12.211Z,4.50
2022-08-28T21:27:40.324Z,4.20
2022-08-28T21:30:13.888Z,5.20
2022-08-28T21:32:41.905Z,4.70
2022-08-28T21:35:13.881Z,4.93
2022-08-28T21:37:43.864Z,5.43
2022-08-28T21:40:14.663Z,5.13
2022-08-28T21:42:42.724Z,5.03
2022-08-28T21:45:13.914Z,5.10
2022-08-28T21:47:42.554Z,4.95
2022-08-28T21:50:11.238Z,4.93
2022-08-28T21:52:39.106Z,5.18
2022-08-28T21:55:15.554Z,4.60
2022-08-28T21:57:43.786Z,4.90
2022-08-28T22:00:19.268Z,5.20
2022-08-28T22:02:47.843Z,4.70
2022-08-28T22:05:17.272Z,5.38
2022-08-28T22:07:47.264Z,5.28
2022-08-28T22:10:17.946Z,4.97
2022-08-28T22:12:45.319Z,5.25
2022-08-28T22:15:13.717Z,5.15
2022-08-28T22:17:41.380Z,5.30
2022-08-28T22:20:10.162Z,4.72
2022-08-28T22:22:56.335Z,5.40
2022-08-28T22:25:24.109Z,5.50
2022-08-28T22:27:52.208Z,4.82
2022-08-28T22:30:20.020Z,5.00
2022-08-28T22:32:48.093Z,4.75
2022-08-28T22:35:15.831Z,5.20
2022-08-28T22:38:04.585Z,5.07
2022-08-28T22:40:32.724Z,5.13
2022-08-28T22:43:03.496Z,5.32
2022-08-28T22:45:35.069Z,5.35
2022-08-28T22:48:02.610Z,5.40
2022-08-28T22:50:30.164Z,5.20
2022-08-28T22:52:57.596Z,5.25
2022-08-28T22:55:25.380Z,5.60
2022-08-28T22:57:54.006Z,5.13
2022-08-28T23:00:26.850Z,4.72
2022-08-28T23:02:56.149Z,5.28
2022-08-28T23:07:52.220Z,4.60
2022-08-28T23:10:25.324Z,5.28
2022-08-28T23:13:04.999Z,5.18
2022-08-28T23:15:33.861Z,5.15
2022-08-28T23:18:02.236Z,5.90
2022-08-28T23:20:30.052Z,5.43
2022-08-28T23:22:58.339Z,5.07
2022-08-28T23:25:26.426Z,5.55
2022-08-28T23:28:12.478Z,4.55
2022-08-28T23:30:59.755Z,5.30
2022-08-28T23:33:27.356Z,5.32
2022-08-28T23:35:55.235Z,4.75
2022-08-28T23:38:23.153Z,5.67
2022-08-28T23:40:50.902Z,5.28
2022-08-28T23:43:18.493Z,4.88
2022-08-28T23:45:46.829Z,5.03
2022-08-28T23:48:15.701Z,5.55
2022-08-28T23:50:43.837Z,4.88
2022-08-28T23:53:11.891Z,5.15
2022-08-28T23:55:40.753Z,5.38
2022-08-28T23:58:08.187Z,5.20
